Time;durP1;ratioP1;P1;durP2;ratioP2;P2;SDS_P1;SDS_P2;PMS_P1;PMS_P2;Temp;Humidity;BMP_temperature;BMP_pressure;BME280_temperature;BME280_humidity;BME280_pressure;Samples;Min_cycle;Max_cycle;Signal;HPM_P1;HPM_P2
2022/05/12 00:00:37;;;;;;;23.20;7.97;;;18.00;65.10;;;;;;5027106;28;20226;-90
2022/05/12 00:03:06;;;;;;;17.33;6.60;;;18.00;65.90;;;;;;5028053;28;21042;-90
2022/05/12 00:05:33;;;;;;;24.47;9.87;;;18.00;65.40;;;;;;5028021;28;20699;-90
2022/05/12 00:08:01;;;;;;;17.40;6.57;;;17.90;65.20;;;;;;5027853;28;20315;-91
2022/05/12 00:10:30;;;;;;;16.80;6.67;;;17.90;65.70;;;;;;5028652;28;20207;-90
2022/05/12 00:12:59;;;;;;;15.23;6.80;;;17.90;65.40;;;;;;5031127;28;20221;-90
2022/05/12 00:15:31;;;;;;;18.40;6.23;;;17.90;65.60;;;;;;5036149;28;20208;-90
2022/05/12 00:18:01;;;;;;;25.23;8.93;;;17.90;66.00;;;;;;5025674;28;20212;-93
2022/05/12 00:20:29;;;;;;;15.70;6.30;;;17.90;65.60;;;;;;5029995;28;20328;-90
2022/05/12 00:23:07;;;;;;;19.30;6.50;;;17.80;65.70;;;;;;5029490;28;20228;-89
2022/05/12 00:25:35;;;;;;;14.20;6.43;;;17.80;66.30;;;;;;5030737;28;20651;-91
2022/05/12 00:28:02;;;;;;;12.93;6.00;;;17.70;65.60;;;;;;5027756;28;20506;-91
2022/05/12 00:30:30;;;;;;;24.33;7.57;;;17.70;65.70;;;;;;5028657;28;20215;-90
2022/05/12 00:32:58;;;;;;;13.10;5.57;;;17.70;66.10;;;;;;5026249;28;20214;-91
2022/05/12 00:35:25;;;;;;;18.53;6.67;;;17.70;66.10;;;;;;5028426;28;20207;-90
2022/05/12 00:37:52;;;;;;;16.43;6.30;;;17.60;65.60;;;;;;5039400;28;20235;-92
2022/05/12 00:40:21;;;;;;;17.97;6.47;;;17.60;66.10;;;;;;5043880;28;20598;-88
2022/05/12 00:42:56;;;;;;;14.93;5.87;;;17.50;66.00;;;;;;5032175;28;20202;-90
2022/05/12 00:45:24;;;;;;;17.47;6.37;;;17.50;66.40;;;;;;5033174;28;20238;-90
2022/05/12 00:47:53;;;;;;;18.47;6.50;;;17.50;66.10;;;;;;5026919;28;20203;-91
2022/05/12 00:50:22;;;;;;;16.90;6.10;;;17.50;66.40;;;;;;5029930;28;20263;-90
2022/05/12 00:52:53;;;;;;;15.93;6.27;;;17.50;66.50;;;;;;5030242;28;20358;-90
2022/05/12 00:55:27;;;;;;;12.63;5.73;;;17.50;66.90;;;;;;5028754;28;20273;-91
2022/05/12 00:57:57;;;;;;;16.30;7.20;;;17.40;66.70;;;;;;5026958;28;20203;-90
2022/05/12 01:00:24;;;;;;;19.57;7.73;;;17.40;66.20;;;;;;5024870;28;20325;-90
2022/05/12 01:02:57;;;;;;;20.10;7.67;;;17.40;65.90;;;;;;5025829;28;20231;-89
2022/05/12 01:05:25;;;;;;;21.47;6.90;;;17.30;66.60;;;;;;5026250;28;20254;-90
2022/05/12 01:07:55;;;;;;;21.53;7.50;;;17.30;66.50;;;;;;5026718;28;20613;-89
2022/05/12 01:10:23;;;;;;;17.90;6.53;;;17.30;66.70;;;;;;5029147;28;20208;-90
2022/05/12 01:12:52;;;;;;;17.33;6.37;;;17.30;66.70;;;;;;5028651;28;20279;-91
2022/05/12 01:15:24;;;;;;;18.13;6.43;;;17.20;66.80;;;;;;5027421;28;20777;-91
2022/05/12 01:18:02;;;;;;;15.30;6.37;;;17.20;66.90;;;;;;5029729;28;20206;-90
2022/05/12 01:20:30;;;;;;;19.63;6.63;;;17.20;66.50;;;;;;5033193;28;20197;-91
2022/05/12 01:23:01;;;;;;;17.13;6.47;;;17.20;66.40;;;;;;5031086;28;20203;-91
2022/05/12 01:25:32;;;;;;;15.07;6.57;;;17.10;66.80;;;;;;5031779;28;20212;-91
2022/05/12 01:27:59;;;;;;;14.83;6.10;;;17.10;67.20;;;;;;5030602;28;21017;-91
2022/05/12 01:30:28;;;;;;;20.93;6.93;;;17.10;66.90;;;;;;5031080;28;20206;-91
2022/05/12 01:32:55;;;;;;;16.60;5.90;;;17.10;67.00;;;;;;5030642;28;20206;-93
2022/05/12 01:35:25;;;;;;;13.67;6.07;;;17.10;66.50;;;;;;5031673;28;20624;-93
2022/05/12 01:37:53;;;;;;;12.50;5.83;;;17.00;67.00;;;;;;5034351;28;20288;-94
2022/05/12 01:40:23;;;;;;;16.60;6.10;;;17.00;66.90;;;;;;5017677;28;20209;-92
2022/05/12 01:42:52;;;;;;;15.33;5.40;;;16.90;67.00;;;;;;5020108;28;20201;-93
2022/05/12 01:45:22;;;;;;;15.13;6.13;;;17.00;67.40;;;;;;5032116;28;20238;-91
2022/05/12 01:47:51;;;;;;;15.00;6.13;;;17.00;67.40;;;;;;5033522;28;20202;-91
2022/05/12 01:50:20;;;;;;;12.63;5.63;;;16.90;67.30;;;;;;5035328;28;20200;-92
2022/05/12 01:52:49;;;;;;;23.27;7.67;;;16.90;67.40;;;;;;5031702;28;20260;-93
2022/05/12 01:55:20;;;;;;;15.63;6.53;;;16.80;67.20;;;;;;5034304;28;20272;-92
2022/05/12 01:57:48;;;;;;;14.30;5.37;;;16.80;67.20;;;;;;5034197;28;20204;-93
2022/05/12 02:00:21;;;;;;;16.13;6.40;;;16.80;66.90;;;;;;5036504;28;20228;-90
2022/05/12 02:02:49;;;;;;;17.97;6.93;;;16.80;67.50;;;;;;5032984;28;21088;-90
2022/05/12 02:05:18;;;;;;;17.57;7.30;;;16.70;67.10;;;;;;5032262;28;20238;-90
2022/05/12 02:07:47;;;;;;;18.43;6.77;;;16.70;67.10;;;;;;5033740;28;20213;-90
2022/05/12 02:10:18;;;;;;;15.73;5.90;;;16.70;67.10;;;;;;5032223;28;20273;-89
2022/05/12 02:12:45;;;;;;;17.03;6.23;;;16.70;66.90;;;;;;5027511;28;20210;-89
2022/05/12 02:15:13;;;;;;;15.83;6.60;;;16.70;66.70;;;;;;5029253;28;20308;-90
2022/05/12 02:17:42;;;;;;;16.07;6.10;;;16.60;66.60;;;;;;5041222;28;20210;-90
2022/05/12 02:20:13;;;;;;;20.47;7.27;;;16.60;67.10;;;;;;5038065;28;20202;-89
2022/05/12 02:22:41;;;;;;;18.70;6.47;;;16.60;67.70;;;;;;5035543;28;20586;-89
2022/05/12 02:25:09;;;;;;;24.33;8.17;;;16.60;67.20;;;;;;5033216;28;20234;-92
2022/05/12 02:27:42;;;;;;;16.77;5.33;;;16.50;67.70;;;;;;5036414;28;20212;-88
2022/05/12 02:30:11;;;;;;;19.97;6.60;;;16.50;67.00;;;;;;5033813;28;20201;-90
2022/05/12 02:32:39;;;;;;;17.93;6.20;;;16.50;67.60;;;;;;5031501;28;20214;-89
2022/05/12 02:35:08;;;;;;;19.87;7.63;;;16.50;67.60;;;;;;5029022;28;20208;-90
2022/05/12 02:37:35;;;;;;;13.83;5.87;;;16.50;67.70;;;;;;5032214;28;20259;-90
2022/05/12 02:40:02;;;;;;;25.17;8.40;;;16.40;67.60;;;;;;5030993;28;20263;-89
2022/05/12 02:42:30;;;;;;;25.33;7.23;;;16.40;67.60;;;;;;5030898;28;20647;-90
2022/05/12 02:44:57;;;;;;;12.00;5.47;;;16.40;67.60;;;;;;5029828;28;20749;-90
2022/05/12 02:47:28;;;;;;;14.40;6.03;;;16.30;67.30;;;;;;5031812;28;20216;-89
2022/05/12 02:49:55;;;;;;;14.50;5.37;;;16.30;67.10;;;;;;5018724;28;20884;-89
2022/05/12 02:52:24;;;;;;;20.27;6.83;;;16.30;67.10;;;;;;5021834;28;20212;-90
2022/05/12 02:54:51;;;;;;;14.30;6.10;;;16.30;67.00;;;;;;5030672;28;20211;-90
2022/05/12 02:57:21;;;;;;;16.37;6.03;;;16.20;67.80;;;;;;5029471;28;20223;-90
2022/05/12 02:59:48;;;;;;;17.80;6.37;;;16.20;67.50;;;;;;5030408;28;20302;-92
2022/05/12 03:02:16;;;;;;;20.10;6.23;;;16.20;67.60;;;;;;5030349;28;20275;-90
2022/05/12 03:04:43;;;;;;;18.27;6.07;;;16.20;67.70;;;;;;5031139;28;20227;-93
2022/05/12 03:07:10;;;;;;;21.43;7.33;;;16.10;67.70;;;;;;5015196;28;20234;-90
2022/05/12 03:09:40;;;;;;;21.23;7.47;;;16.10;68.00;;;;;;5031374;28;20302;-92
2022/05/12 03:12:08;;;;;;;14.07;5.43;;;16.10;68.40;;;;;;5023731;28;20284;-90
2022/05/12 03:14:37;;;;;;;20.57;6.90;;;16.10;68.30;;;;;;5029902;28;20686;-94
2022/05/12 03:17:05;;;;;;;14.00;5.77;;;16.00;68.50;;;;;;5030379;28;20248;-92
2022/05/12 03:19:32;;;;;;;14.37;5.83;;;16.00;68.50;;;;;;5031658;28;20656;-90
2022/05/12 03:21:59;;;;;;;15.33;6.17;;;15.90;68.10;;;;;;5021818;28;20208;-90
2022/05/12 03:24:27;;;;;;;11.43;5.30;;;15.90;67.80;;;;;;5030177;28;20229;-91
2022/05/12 03:26:55;;;;;;;17.67;6.30;;;15.90;67.70;;;;;;5030611;28;20211;-91
2022/05/12 03:29:22;;;;;;;16.67;6.57;;;15.90;67.80;;;;;;5029154;28;20203;-90
2022/05/12 03:31:51;;;;;;;14.93;5.47;;;15.90;67.70;;;;;;5031801;28;20278;-91
2022/05/12 03:34:18;;;;;;;19.10;7.50;;;15.80;68.30;;;;;;5029208;28;20240;-93
2022/05/12 03:36:45;;;;;;;15.63;5.30;;;15.80;68.50;;;;;;5032409;28;20213;-91
2022/05/12 03:39:17;;;;;;;15.83;5.90;;;15.70;68.70;;;;;;5026867;28;20246;-94
2022/05/12 03:41:47;;;;;;;13.57;5.90;;;15.70;69.00;;;;;;5018772;28;20763;-91
2022/05/12 03:46:59;;;;;;;13.87;5.77;;;15.60;69.00;;;;;;5036210;28;20210;-93
2022/05/12 03:49:27;;;;;;;14.37;5.73;;;15.60;68.70;;;;;;5047574;28;20243;-92
2022/05/12 03:51:55;;;;;;;16.53;5.40;;;15.50;69.40;;;;;;5041486;28;20242;-93
2022/05/12 03:54:22;;;;;;;14.40;5.60;;;15.50;69.40;;;;;;5035266;28;20625;-92
2022/05/12 03:56:49;;;;;;;13.17;5.87;;;15.50;69.70;;;;;;5035610;28;20228;-91
2022/05/12 03:59:18;;;;;;;17.33;7.27;;;15.50;70.00;;;;;;5030459;28;20223;-92
2022/05/12 04:01:47;;;;;;;18.63;6.20;;;15.40;70.20;;;;;;5029243;28;20353;-93
2022/05/12 04:04:16;;;;;;;15.50;5.83;;;15.40;70.40;;;;;;5033170;28;20228;-90
2022/05/12 04:06:47;;;;;;;14.97;6.30;;;15.30;70.40;;;;;;5027475;28;20240;-94
2022/05/12 04:09:16;;;;;;;10.40;5.33;;;15.30;70.50;;;;;;5012546;28;20219;-94
2022/05/12 04:11:43;;;;;;;16.10;6.57;;;15.30;70.70;;;;;;5014844;28;20651;-94
2022/05/12 04:14:10;;;;;;;16.73;6.40;;;15.30;70.60;;;;;;5049806;28;20500;-90
2022/05/12 04:16:42;;;;;;;28.67;9.10;;;15.20;70.80;;;;;;5050815;28;20219;-93
2022/05/12 04:19:08;;;;;;;18.33;6.47;;;15.20;71.30;;;;;;5033941;28;20737;-90
2022/05/12 04:21:37;;;;;;;14.23;5.90;;;15.20;70.90;;;;;;5030884;28;20203;-94
2022/05/12 04:24:05;;;;;;;16.73;6.20;;;15.20;71.50;;;;;;5032145;28;20797;-92
2022/05/12 04:26:36;;;;;;;16.03;6.33;;;15.10;71.60;;;;;;5031758;28;20197;-91
2022/05/12 04:29:03;;;;;;;15.13;6.30;;;15.10;71.70;;;;;;5018957;28;20236;-94
2022/05/12 04:31:31;;;;;;;21.10;8.00;;;15.10;71.60;;;;;;5013391;28;20276;-92
2022/05/12 04:36:43;;;;;;;16.97;6.10;;;15.10;71.70;;;;;;5029451;28;20209;-91
2022/05/12 04:39:11;;;;;;;16.13;6.47;;;15.00;71.60;;;;;;5030265;28;20234;-92
2022/05/12 04:41:40;;;;;;;29.00;9.33;;;15.00;71.60;;;;;;5027019;28;20637;-92
2022/05/12 04:44:08;;;;;;;15.00;6.73;;;15.00;72.30;;;;;;5029108;28;20201;-89
2022/05/12 04:46:37;;;;;;;25.07;8.33;;;15.00;72.30;;;;;;5027240;28;20209;-90
2022/05/12 04:49:08;;;;;;;14.10;6.53;;;15.00;72.90;;;;;;5015341;28;20236;-91
2022/05/12 04:51:35;;;;;;;14.93;6.80;;;15.00;73.20;;;;;;5029121;28;20653;-91
2022/05/12 04:54:06;;;;;;;16.27;7.10;;;15.00;72.80;;;;;;5027498;28;20317;-91
2022/05/12 04:56:34;;;;;;;22.40;8.00;;;15.00;73.70;;;;;;5025978;28;20209;-91
2022/05/12 04:59:01;;;;;;;19.40;7.43;;;15.00;73.10;;;;;;5024402;28;20205;-90
2022/05/12 05:01:28;;;;;;;21.33;8.17;;;15.00;73.30;;;;;;5024838;28;20254;-88
2022/05/12 05:03:56;;;;;;;16.03;6.60;;;14.90;73.60;;;;;;5027522;28;20282;-89
2022/05/12 05:06:25;;;;;;;21.63;8.70;;;15.00;73.80;;;;;;5027595;28;20237;-90
2022/05/12 05:08:52;;;;;;;17.03;6.87;;;14.90;74.30;;;;;;5029429;28;20239;-90
2022/05/12 05:11:18;;;;;;;18.00;6.87;;;15.00;74.40;;;;;;5027491;28;20276;-89
2022/05/12 05:13:46;;;;;;;13.93;5.87;;;14.90;74.30;;;;;;5027650;28;20744;-90
2022/05/12 05:16:14;;;;;;;14.63;6.60;;;14.90;74.50;;;;;;5027121;28;20262;-90
2022/05/12 05:18:42;;;;;;;15.67;6.97;;;14.90;75.20;;;;;;5028345;28;20240;-94
2022/05/12 05:21:10;;;;;;;15.90;6.60;;;14.90;75.20;;;;;;5028973;28;20676;-93
2022/05/12 05:23:39;;;;;;;15.43;6.93;;;14.90;75.20;;;;;;5027248;28;20216;-93
2022/05/12 05:26:07;;;;;;;17.60;7.43;;;14.90;75.90;;;;;;5027892;28;20326;-90
2022/05/12 05:28:35;;;;;;;20.17;7.60;;;14.80;75.30;;;;;;5026082;28;20571;-90
2022/05/12 05:31:02;;;;;;;15.43;6.93;;;14.90;75.70;;;;;;5023417;28;20205;-91
2022/05/12 05:33:29;;;;;;;11.60;5.90;;;14.90;76.00;;;;;;5027161;28;20200;-92
2022/05/12 05:35:57;;;;;;;17.70;6.77;;;14.90;76.10;;;;;;5027663;28;20299;-91
2022/05/12 05:38:24;;;;;;;14.20;6.23;;;14.90;76.20;;;;;;5029939;28;20766;-91
2022/05/12 05:40:52;;;;;;;14.33;6.77;;;15.00;76.40;;;;;;5026371;28;20288;-91
2022/05/12 05:43:20;;;;;;;19.87;7.77;;;15.00;76.80;;;;;;5026699;28;20255;-89
2022/05/12 05:45:47;;;;;;;21.13;7.60;;;15.00;76.50;;;;;;5027932;28;20233;-89
2022/05/12 05:48:14;;;;;;;17.47;7.27;;;15.00;76.70;;;;;;5027027;28;20390;-91
2022/05/12 05:53:32;;;;;;;15.23;7.50;;;15.10;77.60;;;;;;5026471;28;20877;-89
2022/05/12 05:56:02;;;;;;;20.07;7.53;;;15.10;77.70;;;;;;5027326;28;20212;-92
2022/05/12 05:58:30;;;;;;;18.23;6.77;;;15.10;78.80;;;;;;5029083;28;20232;-89
2022/05/12 06:00:57;;;;;;;14.87;6.27;;;15.10;77.70;;;;;;5028711;28;20212;-90
2022/05/12 06:03:25;;;;;;;13.07;6.10;;;15.20;77.90;;;;;;5032894;28;20208;-89
2022/05/12 06:05:52;;;;;;;15.70;6.47;;;15.30;77.90;;;;;;5032514;28;20321;-90
2022/05/12 06:08:21;;;;;;;13.20;6.03;;;15.30;78.00;;;;;;5032796;28;20208;-90
2022/05/12 06:10:48;;;;;;;13.73;5.70;;;15.30;78.50;;;;;;5029535;28;20227;-90
2022/05/12 06:13:17;;;;;;;14.33;7.23;;;15.40;78.30;;;;;;5032108;28;20244;-90
2022/05/12 06:15:45;;;;;;;13.90;6.53;;;15.40;78.70;;;;;;5033445;28;20231;-89
2022/05/12 06:18:14;;;;;;;12.47;5.93;;;15.50;78.30;;;;;;5033181;28;20656;-91
2022/05/12 06:20:41;;;;;;;15.83;7.13;;;15.60;78.60;;;;;;5033475;28;20251;-89
2022/05/12 06:23:09;;;;;;;12.03;6.30;;;15.70;78.20;;;;;;5032299;28;20209;-88
2022/05/12 06:25:37;;;;;;;13.27;5.80;;;15.70;78.50;;;;;;5029827;28;20245;-88
2022/05/12 06:28:04;;;;;;;9.67;5.10;;;15.80;78.20;;;;;;5030913;28;20199;-91
2022/05/12 06:30:33;;;;;;;13.83;4.77;;;15.90;78.50;;;;;;5031956;28;20201;-92
2022/05/12 06:33:01;;;;;;;11.67;5.30;;;15.90;78.80;;;;;;5033643;28;20213;-91
2022/05/12 06:35:28;;;;;;;17.37;5.53;;;16.00;78.90;;;;;;5030140;28;20203;-91
2022/05/12 06:37:55;;;;;;;9.50;4.97;;;16.10;78.60;;;;;;5032265;28;20208;-88
2022/05/12 06:40:23;;;;;;;13.50;5.47;;;16.20;78.50;;;;;;5032392;28;20217;-91
2022/05/12 06:42:53;;;;;;;10.83;4.63;;;16.30;78.50;;;;;;5031864;28;20296;-91
2022/05/12 06:45:22;;;;;;;13.33;5.30;;;16.30;78.80;;;;;;5032468;28;20232;-89
2022/05/12 06:47:52;;;;;;;12.33;4.83;;;16.40;78.60;;;;;;5030946;28;20198;-94
2022/05/12 06:50:23;;;;;;;12.23;5.23;;;16.40;77.80;;;;;;5033097;28;20285;-94
2022/05/12 06:52:53;;;;;;;15.07;5.53;;;16.50;76.90;;;;;;5031054;28;20343;-92
2022/05/12 06:55:21;;;;;;;18.67;6.50;;;16.60;76.30;;;;;;5020221;28;20262;-89
2022/05/12 06:57:49;;;;;;;13.17;5.20;;;16.70;75.80;;;;;;5027165;28;20210;-91
2022/05/12 07:00:17;;;;;;;8.53;3.87;;;16.70;75.90;;;;;;5031635;28;20235;-91
2022/05/12 07:02:45;;;;;;;13.10;5.43;;;16.80;75.80;;;;;;5031492;28;20246;-93
2022/05/12 07:05:15;;;;;;;14.47;4.90;;;16.90;75.20;;;;;;5030669;28;20700;-89
2022/05/12 07:07:43;;;;;;;10.03;4.60;;;16.90;74.50;;;;;;5030597;28;20254;-90
2022/05/12 07:10:12;;;;;;;10.00;3.97;;;17.00;74.50;;;;;;5030049;28;20225;-88
2022/05/12 07:12:41;;;;;;;10.93;4.40;;;17.00;73.40;;;;;;5029334;28;20254;-87
2022/05/12 07:15:10;;;;;;;7.83;3.40;;;17.10;73.60;;;;;;5030661;28;20254;-89
2022/05/12 07:17:38;;;;;;;6.77;3.53;;;17.20;71.70;;;;;;5015795;28;20856;-88
2022/05/12 07:28:21;;;;;;;7.77;3.33;;;17.50;71.20;;;;;;5037525;28;20206;-88
2022/05/12 07:31:03;;;;;;;9.83;3.40;;;17.50;70.40;;;;;;5031291;28;20668;-88
2022/05/12 07:33:31;;;;;;;7.37;3.83;;;17.60;69.80;;;;;;5031282;28;20888;-88
2022/05/12 07:36:00;;;;;;;9.87;3.83;;;17.70;69.80;;;;;;5030224;28;20294;-88
2022/05/12 07:38:29;;;;;;;9.80;3.83;;;17.70;69.00;;;;;;5028371;28;20279;-88
2022/05/12 07:40:56;;;;;;;9.97;3.47;;;17.80;68.40;;;;;;5029942;28;20731;-89
2022/05/12 07:43:23;;;;;;;12.77;4.10;;;17.80;68.50;;;;;;5030007;28;20219;-95
2022/05/12 07:45:51;;;;;;;10.27;4.17;;;17.90;67.30;;;;;;5031135;28;20292;-93
2022/05/12 07:48:19;;;;;;;13.47;4.87;;;17.90;66.60;;;;;;5028723;28;20790;-93
2022/05/12 07:50:46;;;;;;;8.40;3.73;;;18.00;66.30;;;;;;5044543;28;20198;-93
2022/05/12 07:53:13;;;;;;;10.67;3.90;;;18.10;64.50;;;;;;5048808;28;20196;-92
2022/05/12 07:55:43;;;;;;;5.00;2.37;;;18.10;64.70;;;;;;5038413;28;20277;-94
2022/05/12 07:58:16;;;;;;;8.60;3.20;;;18.10;64.70;;;;;;5037279;28;20286;-94
2022/05/12 08:00:44;;;;;;;7.43;3.10;;;18.10;64.00;;;;;;5033451;28;20208;-95
2022/05/12 08:03:12;;;;;;;8.73;3.40;;;18.20;64.00;;;;;;5036023;28;20201;-88
2022/05/12 08:05:40;;;;;;;10.83;3.73;;;18.20;63.80;;;;;;5031430;28;20777;-91
2022/05/12 08:08:09;;;;;;;8.23;3.33;;;18.30;64.00;;;;;;5029669;28;20208;-89
2022/05/12 08:10:36;;;;;;;10.53;4.03;;;18.40;64.10;;;;;;5029902;28;20294;-89
2022/05/12 08:13:14;;;;;;;11.13;4.13;;;18.40;64.00;;;;;;5029867;28;20240;-88
2022/05/12 08:15:41;;;;;;;7.77;3.67;;;18.50;61.50;;;;;;5026167;28;20219;-90
2022/05/12 08:18:09;;;;;;;6.70;3.93;;;18.60;62.00;;;;;;5030261;28;20214;-92
2022/05/12 08:20:38;;;;;;;9.70;3.83;;;18.60;61.80;;;;;;5026273;28;20185;-90
2022/05/12 08:23:05;;;;;;;9.07;3.90;;;18.70;62.40;;;;;;5011149;28;20244;-87
2022/05/12 08:25:32;;;;;;;8.10;2.97;;;18.70;62.30;;;;;;5019077;28;20263;-90
2022/05/12 08:27:59;;;;;;;7.97;3.57;;;18.80;60.70;;;;;;5030472;28;20270;-88
2022/05/12 08:30:29;;;;;;;9.70;4.13;;;18.80;60.10;;;;;;5023577;28;20279;-88
2022/05/12 08:32:57;;;;;;;9.97;3.67;;;18.90;59.60;;;;;;5029894;28;20215;-90
2022/05/12 08:35:26;;;;;;;9.90;4.10;;;18.90;60.20;;;;;;5029922;28;20205;-89
2022/05/12 08:37:53;;;;;;;8.70;3.60;;;19.00;59.50;;;;;;5028233;28;20216;-89
2022/05/12 08:40:31;;;;;;;7.47;2.83;;;19.00;60.30;;;;;;5029433;28;20205;-92
2022/05/12 08:43:09;;;;;;;7.40;3.23;;;19.10;58.90;;;;;;5030009;28;20302;-89
2022/05/12 08:45:37;;;;;;;11.07;4.13;;;19.30;58.70;;;;;;5027541;28;20224;-91
2022/05/12 08:48:06;;;;;;;6.60;3.07;;;19.30;57.30;;;;;;5027749;28;20283;-89
2022/05/12 08:50:33;;;;;;;10.97;3.50;;;19.50;57.40;;;;;;5025766;28;20201;-95
2022/05/12 08:53:05;;;;;;;7.87;3.40;;;19.60;58.10;;;;;;5030352;28;20197;-88
2022/05/12 08:55:37;;;;;;;4.43;2.37;;;19.80;58.40;;;;;;5028188;28;20258;-92
2022/05/12 08:58:06;;;;;;;5.40;2.83;;;20.00;58.40;;;;;;5029804;28;20219;-94
2022/05/12 09:00:44;;;;;;;6.63;2.80;;;20.20;58.00;;;;;;5030908;28;20292;-93
2022/05/12 09:03:18;;;;;;;7.93;3.33;;;20.40;57.70;;;;;;5028997;28;20560;-91
2022/05/12 09:05:59;;;;;;;5.10;2.33;;;20.60;56.60;;;;;;5030050;28;20233;-91
2022/05/12 09:08:35;;;;;;;9.17;4.07;;;20.80;56.90;;;;;;5023818;28;20200;-95
2022/05/12 09:11:05;;;;;;;13.57;3.93;;;21.00;56.60;;;;;;5027496;28;20656;-93
2022/05/12 09:13:36;;;;;;;6.63;2.73;;;21.20;56.70;;;;;;5027603;28;20241;-95
2022/05/12 09:16:19;;;;;;;5.47;2.30;;;21.40;55.30;;;;;;5032235;28;20553;-95
2022/05/12 09:18:52;;;;;;;5.03;2.10;;;21.50;53.90;;;;;;5031634;28;20207;-92
2022/05/12 09:21:24;;;;;;;7.47;3.00;;;21.70;54.50;;;;;;5031726;28;20197;-92
2022/05/12 09:23:51;;;;;;;4.17;1.90;;;21.80;54.30;;;;;;5030386;28;20272;-89
2022/05/12 09:26:38;;;;;;;7.20;2.67;;;21.80;54.30;;;;;;5028924;28;20270;-96
2022/05/12 09:29:14;;;;;;;10.37;3.77;;;22.00;52.50;;;;;;5019974;28;20283;-93
2022/05/12 09:31:43;;;;;;;6.03;2.53;;;22.00;53.30;;;;;;5020867;28;20207;-93
2022/05/12 09:34:36;;;;;;;5.87;2.13;;;22.00;51.60;;;;;;5032205;28;20555;-93
2022/05/12 09:37:17;;;;;;;8.10;3.00;;;22.00;49.10;;;;;;5022688;28;20205;-93
2022/05/12 09:39:46;;;;;;;14.13;4.93;;;22.00;49.80;;;;;;5029698;28;20340;-91
2022/05/12 09:42:26;;;;;;;9.13;2.60;;;21.90;51.50;;;;;;5034808;28;20573;-93
2022/05/12 09:44:56;;;;;;;8.97;3.43;;;21.90;51.40;;;;;;5028617;28;20209;-92
2022/05/12 09:47:23;;;;;;;8.10;3.53;;;21.90;51.90;;;;;;5030434;28;20275;-90
2022/05/12 09:50:15;;;;;;;8.83;3.87;;;21.90;51.90;;;;;;5031164;28;20286;-89
2022/05/12 09:52:40;;;;;;;6.37;2.93;;;21.90;50.90;;;;;;5030772;28;20207;-90
2022/05/12 09:55:27;;;;;;;16.53;6.40;;;21.90;51.50;;;;;;5026579;28;20205;-90
2022/05/12 09:57:58;;;;;;;10.83;5.00;;;21.90;51.20;;;;;;5027736;28;20985;-89
2022/05/12 10:00:39;;;;;;;12.07;5.13;;;21.90;51.10;;;;;;5024898;28;20973;-88
2022/05/12 10:09:09;;;;;;;9.80;3.73;;;22.10;51.10;;;;;;5028766;28;20383;-88
2022/05/12 10:11:43;;;;;;;7.03;3.70;;;22.20;50.60;;;;;;5026804;28;20192;-90
2022/05/12 10:14:22;;;;;;;10.13;4.30;;;22.20;50.40;;;;;;5012714;28;20240;-92
2022/05/12 10:16:51;;;;;;;7.83;3.40;;;22.30;51.20;;;;;;5031612;28;21013;-88
2022/05/12 10:19:22;;;;;;;7.73;3.67;;;22.40;48.20;;;;;;5030875;28;20216;-89
2022/05/12 10:21:59;;;;;;;7.77;3.03;;;22.60;49.50;;;;;;5026303;28;20693;-87
2022/05/12 10:24:38;;;;;;;8.87;3.60;;;22.60;49.10;;;;;;5028349;28;20285;-88
2022/05/12 10:27:11;;;;;;;5.87;3.07;;;22.80;49.10;;;;;;5030481;28;20216;-88
2022/05/12 10:29:48;;;;;;;14.57;5.93;;;22.90;49.60;;;;;;5025457;28;20665;-88
2022/05/12 10:32:28;;;;;;;18.13;5.60;;;22.80;48.70;;;;;;5019495;28;20229;-88
2022/05/12 10:35:04;;;;;;;9.10;4.20;;;22.90;47.40;;;;;;5020458;28;20637;-88
2022/05/12 10:37:44;;;;;;;10.53;3.97;;;23.00;48.50;;;;;;5024802;28;20313;-90
2022/05/12 10:40:31;;;;;;;7.10;3.70;;;23.10;48.00;;;;;;5015607;28;20208;-87
2022/05/12 10:43:25;;;;;;;6.53;2.93;;;23.10;48.20;;;;;;5029601;28;20208;-89
2022/05/12 10:46:01;;;;;;;5.37;2.53;;;23.20;48.90;;;;;;5027726;28;20663;-89
2022/05/12 10:48:50;;;;;;;5.87;2.83;;;23.20;48.30;;;;;;5032411;28;20208;-92
2022/05/12 10:51:27;;;;;;;9.03;3.70;;;23.30;47.20;;;;;;5030541;28;20215;-87
2022/05/12 10:54:10;;;;;;;7.77;3.10;;;23.30;46.50;;;;;;5024664;28;20343;-90
2022/05/12 10:56:47;;;;;;;7.00;2.57;;;23.40;46.50;;;;;;5031317;28;20748;-89
2022/05/12 10:59:37;;;;;;;7.67;2.97;;;23.50;46.10;;;;;;5031699;28;21045;-88
2022/05/12 11:02:12;;;;;;;6.43;2.60;;;23.50;46.50;;;;;;5041456;28;20291;-87
2022/05/12 11:04:42;;;;;;;10.13;4.27;;;23.60;47.30;;;;;;5040848;28;20209;-88
2022/05/12 11:07:16;;;;;;;5.87;2.83;;;23.80;46.60;;;;;;5033268;28;20228;-88
2022/05/12 11:09:50;;;;;;;9.17;3.53;;;23.90;46.90;;;;;;5031906;28;20311;-87
2022/05/12 11:12:24;;;;;;;6.17;2.63;;;24.00;47.60;;;;;;5029503;28;20196;-87
2022/05/12 11:14:57;;;;;;;6.20;3.07;;;24.20;47.50;;;;;;5027776;28;20231;-89
2022/05/12 11:17:33;;;;;;;7.30;3.27;;;24.40;46.60;;;;;;5029425;28;20219;-87
2022/05/12 11:20:04;;;;;;;7.83;3.57;;;24.60;45.80;;;;;;5015124;28;20296;-89
2022/05/12 11:22:42;;;;;;;8.00;3.23;;;24.70;45.30;;;;;;5029396;28;20255;-86
2022/05/12 11:25:15;;;;;;;5.60;2.63;;;24.80;44.20;;;;;;5028281;28;20250;-88
2022/05/12 11:27:51;;;;;;;6.33;2.67;;;24.80;45.00;;;;;;5046055;28;20300;-87
2022/05/12 11:30:36;;;;;;;7.43;2.93;;;24.90;44.70;;;;;;5042962;28;20205;-88
2022/05/12 11:33:16;;;;;;;5.97;2.70;;;24.90;43.90;;;;;;5034807;28;20271;-88
2022/05/12 11:35:46;;;;;;;5.37;2.57;;;24.80;44.40;;;;;;5021274;28;20558;-89
2022/05/12 11:38:45;;;;;;;3.33;1.77;;;24.80;44.70;;;;;;5029369;28;20296;-87
2022/05/12 11:41:42;;;;;;;9.17;3.27;;;24.80;43.60;;;;;;5029506;28;21032;-95
2022/05/12 11:44:34;;;;;;;6.77;2.60;;;24.70;43.30;;;;;;5012235;28;20592;-92
2022/05/12 11:47:33;;;;;;;10.17;4.57;;;24.70;43.50;;;;;;5026446;28;20577;-94
2022/05/12 11:50:31;;;;;;;5.37;1.90;;;24.60;42.60;;;;;;5030743;28;20271;-93
2022/05/12 11:53:03;;;;;;;6.30;2.70;;;24.50;42.60;;;;;;5014810;28;20193;-90
2022/05/12 11:55:33;;;;;;;6.57;2.77;;;24.40;43.70;;;;;;5030740;28;20197;-93
2022/05/12 11:58:08;;;;;;;6.13;2.63;;;24.40;44.40;;;;;;5031737;28;20208;-93
2022/05/12 12:00:59;;;;;;;6.37;2.43;;;24.40;43.40;;;;;;5028463;28;20216;-91
2022/05/12 12:03:56;;;;;;;8.80;3.60;;;24.40;44.00;;;;;;5028382;28;20259;-88
2022/05/12 12:06:46;;;;;;;9.47;4.13;;;24.40;44.30;;;;;;5021956;28;20213;-88
2022/05/12 12:09:53;;;;;;;6.23;2.67;;;24.40;43.30;;;;;;5014255;28;20295;-87
2022/05/12 12:12:53;;;;;;;15.27;4.53;;;24.50;43.30;;;;;;5027100;28;20621;-91
2022/05/12 12:16:01;;;;;;;9.23;3.07;;;24.60;45.20;;;;;;5028401;28;20284;-92
2022/05/12 12:18:52;;;;;;;8.57;3.80;;;24.70;45.70;;;;;;5032684;28;20194;-93
2022/05/12 12:21:48;;;;;;;12.03;4.20;;;24.70;46.30;;;;;;5027358;28;20209;-90
2022/05/12 12:24:54;;;;;;;10.23;4.27;;;24.80;46.80;;;;;;5028077;28;20211;-88
2022/05/12 12:28:09;;;;;;;7.60;3.87;;;24.80;47.20;;;;;;5025999;28;20742;-90
2022/05/12 12:31:08;;;;;;;15.40;5.50;;;24.90;47.20;;;;;;4965182;28;20314;-96
2022/05/12 12:34:08;;;;;;;8.23;3.33;;;25.10;47.40;;;;;;5030050;28;20217;-94
2022/05/12 12:37:00;;;;;;;7.60;2.50;;;25.20;47.30;;;;;;5028968;28;20618;-93
2022/05/12 12:39:39;;;;;;;12.37;4.60;;;25.30;47.10;;;;;;5013253;28;20255;-88
2022/05/12 12:42:28;;;;;;;4.63;2.30;;;25.50;46.50;;;;;;5030757;28;20254;-95
2022/05/12 12:44:59;;;;;;;6.50;2.40;;;25.60;46.70;;;;;;5026761;28;20200;-95
2022/05/12 12:47:36;;;;;;;6.70;3.10;;;25.70;46.60;;;;;;5026444;28;20303;-95
2022/05/12 12:50:24;;;;;;;9.50;2.73;;;25.80;46.40;;;;;;5031232;28;20661;-95
2022/05/12 12:52:56;;;;;;;7.30;3.20;;;25.90;46.20;;;;;;5029340;28;20208;-89
2022/05/12 12:58:15;;;;;;;10.30;3.07;;;25.90;45.60;;;;;;5027336;28;20196;-91
2022/05/12 13:00:43;;;;;;;10.20;3.23;;;26.00;45.50;;;;;;5029082;28;20645;-95
2022/05/12 13:03:20;;;;;;;10.90;4.37;;;26.00;46.00;;;;;;5028885;28;20254;-92
2022/05/12 13:05:50;;;;;;;10.23;3.13;;;26.00;44.70;;;;;;5022329;28;20217;-89
2022/05/12 13:08:27;;;;;;;7.13;2.60;;;26.10;45.40;;;;;;5015620;28;20708;-91
2022/05/12 13:10:59;;;;;;;6.87;2.77;;;26.10;45.20;;;;;;5026941;28;20208;-90
2022/05/12 13:13:27;;;;;;;12.97;4.73;;;26.10;44.90;;;;;;5033245;28;20740;-89
2022/05/12 13:15:58;;;;;;;10.70;3.60;;;26.20;44.90;;;;;;5035975;28;20201;-91
2022/05/12 13:18:30;;;;;;;7.73;2.93;;;26.20;44.90;;;;;;5033941;28;20207;-95
2022/05/12 13:21:00;;;;;;;6.67;2.17;;;26.20;44.20;;;;;;5036339;28;20924;-95
2022/05/12 13:23:30;;;;;;;9.23;3.83;;;26.20;43.40;;;;;;5031934;28;20290;-91
2022/05/12 13:26:00;;;;;;;7.73;3.07;;;26.20;43.60;;;;;;5033125;28;20200;-89
2022/05/12 13:28:30;;;;;;;9.57;3.13;;;26.10;43.50;;;;;;5033906;28;20236;-92
2022/05/12 13:31:14;;;;;;;6.90;3.03;;;26.10;43.20;;;;;;5030914;28;20289;-91